createdAt,value
2022-11-05T00:12:37.260Z,6.4
2022-11-05T00:32:39.019Z,6.2
2022-11-05T00:42:39.692Z,6
2022-11-05T00:52:40.066Z,5.7
2022-11-05T01:02:40.806Z,5.6
2022-11-05T01:12:41.239Z,5.5
2022-11-05T01:32:42.707Z,5.2
2022-11-05T01:42:43.117Z,5.1
2022-11-05T01:52:43.363Z,5
2022-11-05T02:02:44.092Z,5
2022-11-05T02:12:44.725Z,4.9
2022-11-05T02:22:44.863Z,4.9
2022-11-05T02:32:45.636Z,4.8
2022-11-05T02:42:46.742Z,4.7
2022-11-05T02:52:46.935Z,4.6
2022-11-05T03:02:48.068Z,4.5
2022-11-05T03:12:48.822Z,4.4
2022-11-05T03:32:50.287Z,4.4
2022-11-05T03:52:51.331Z,4.4
2022-11-05T04:12:52.206Z,4.5
2022-11-05T04:22:52.774Z,4.5
2022-11-05T04:32:53.784Z,4.6
2022-11-05T04:42:54.379Z,4.6
2022-11-05T04:52:55.398Z,4.5
2022-11-05T05:02:56.268Z,4.4
2022-11-05T05:12:56.685Z,4.4
2022-11-05T05:22:56.860Z,4.7
2022-11-05T05:32:57.535Z,4.9
2022-11-05T05:42:58.071Z,5
2022-11-05T05:52:58.773Z,5
2022-11-05T06:02:59.313Z,5
2022-11-05T06:12:59.628Z,5
2022-11-05T06:23:00.013Z,4.9
2022-11-05T06:33:00.252Z,4.7
2022-11-05T06:53:01.759Z,4.5
2022-11-05T07:13:07.698Z,4.7
2022-11-05T07:23:03.579Z,4.8
2022-11-05T07:33:04.429Z,4.9
2022-11-05T07:43:05.276Z,5.1
2022-11-05T07:53:05.468Z,5.3
2022-11-05T08:13:06.315Z,6
2022-11-05T08:23:07.170Z,6.2
2022-11-05T09:03:09.969Z,7.5
2022-11-05T10:13:13.562Z,10.3
2022-11-05T10:53:15.031Z,12.2
2022-11-05T11:33:17.071Z,12.2
2022-11-05T12:13:19.279Z,12.6
2022-11-05T12:33:20.118Z,12.2
2022-11-05T12:43:20.569Z,12
2022-11-05T13:23:22.350Z,12
2022-11-05T13:33:23.299Z,12.1
2022-11-05T13:43:24.027Z,12.2
2022-11-05T13:53:24.203Z,12.1
2022-11-05T14:03:24.819Z,12.1
2022-11-05T14:13:25.253Z,11.8
2022-11-05T14:23:25.608Z,11.6
2022-11-05T14:33:25.784Z,11.4
2022-11-05T14:43:26.388Z,11.4
2022-11-05T14:53:27.362Z,11.3
2022-11-05T15:03:28.398Z,11.2
2022-11-05T15:13:29.255Z,11.1
2022-11-05T15:23:29.567Z,11
2022-11-05T15:33:30.545Z,10.9
2022-11-05T15:43:30.997Z,10.8
2022-11-05T15:53:44.559Z,10.7
2022-11-05T16:03:31.741Z,10.6
2022-11-05T16:13:32.789Z,10.6
2022-11-05T16:23:33.318Z,10.5
2022-11-05T16:33:33.753Z,10.3
2022-11-05T16:53:34.801Z,10.3
2022-11-05T17:03:35.766Z,10.4
2022-11-05T17:13:36.581Z,10.3
2022-11-05T17:23:37.237Z,10.4
2022-11-05T17:33:38.149Z,10.4
2022-11-05T17:43:38.813Z,10.4
2022-11-05T17:53:39.583Z,10.4
2022-11-05T18:03:39.756Z,10.5
2022-11-05T18:13:40.351Z,10.5
2022-11-05T18:23:41.334Z,10.6
2022-11-05T18:33:41.988Z,10.6
2022-11-05T18:43:42.470Z,10.6
2022-11-05T18:53:42.920Z,10.7
2022-11-05T19:03:43.234Z,10.7
2022-11-05T19:13:44.141Z,10.7
2022-11-05T19:23:44.904Z,10.7
2022-11-05T19:33:45.172Z,10.7
2022-11-05T19:43:46.112Z,10.6
2022-11-05T19:53:46.323Z,10.6
2022-11-05T20:03:46.674Z,10.5
2022-11-05T20:13:47.331Z,10.5
2022-11-05T20:23:47.522Z,10.4
2022-11-05T20:33:47.982Z,10.3
2022-11-05T20:43:48.770Z,10.3
2022-11-05T20:53:49.260Z,10.2
2022-11-05T21:03:49.758Z,10.1
2022-11-05T21:13:50.771Z,10.1
2022-11-05T21:23:51.301Z,10.1
2022-11-05T21:43:53.097Z,10.1
2022-11-05T21:53:53.883Z,10.1
2022-11-05T22:03:57.680Z,10.1
2022-11-05T22:13:55.824Z,10.1
2022-11-05T22:23:56.254Z,10.1
2022-11-05T22:33:56.539Z,10
2022-11-05T22:43:57.670Z,10
2022-11-05T22:53:57.845Z,9.9
2022-11-05T23:03:58.797Z,9.9
2022-11-05T23:13:59.244Z,9.8
2022-11-05T23:24:00.181Z,9.8
2022-11-05T23:34:00.407Z,9.8
2022-11-05T23:44:00.926Z,9.8
2022-11-05T23:54:01.706Z,9.7
